Terminal Aerodrome Forecast
Issued by NWS

Home | Current Version | Previous Version | Text Only | Print | Product List | Glossary On
Versions: 1 2 3 4 5 6 7 8 9 10 11 12 13 14 15 16 17 18
000
FTUS44 KTSA 030100 AAA
TAFBVO
TAF AMD
KBVO 030119Z 0301/0324 17004KT P6SM OVC008
     FM030300 16009KT 4SM BR OVC008
     FM031200 19013KT 3SM BR OVC006 PROB30 0312/0318 2SM -DZ BR
      OVC004
     FM031800 21013KT 4SM BR OVC015 PROB30 0318/0324 4SM -RA BR
      OVC007=

USA.gov is the U.S. government's official web portal to all federal, state and local government web resources and services.